createdAt,value
2022-09-10T00:00:01.222Z,19.40
2022-09-10T00:02:32.805Z,19.30
2022-09-10T00:05:03.230Z,19.20
2022-09-10T00:07:33.431Z,19.10
2022-09-10T00:10:03.758Z,18.90
2022-09-10T00:12:33.359Z,18.90
2022-09-10T00:15:21.359Z,18.80
2022-09-10T00:17:52.376Z,18.70
2022-09-10T00:20:22.673Z,18.60
2022-09-10T00:22:52.226Z,18.60
2022-09-10T00:25:21.722Z,18.40
2022-09-10T00:27:51.318Z,18.40
2022-09-10T00:30:20.980Z,18.30
2022-09-10T00:32:54.576Z,18.20
2022-09-10T00:35:25.331Z,18.10
2022-09-10T00:37:54.873Z,18.10
2022-09-10T00:40:24.448Z,18.00
2022-09-10T00:42:54.558Z,17.90
2022-09-10T00:45:25.606Z,17.90
2022-09-10T00:47:59.137Z,17.90
2022-09-10T00:50:29.526Z,17.90
2022-09-10T00:52:59.742Z,17.90
2022-09-10T00:55:30.082Z,18.00
2022-09-10T00:58:03.058Z,17.90
2022-09-10T01:00:32.915Z,17.90
2022-09-10T01:03:04.316Z,17.90
2022-09-10T01:05:34.861Z,17.90
2022-09-10T01:08:05.061Z,18.00
2022-09-10T01:10:41.144Z,17.90
2022-09-10T01:13:19.426Z,17.80
2022-09-10T01:15:51.922Z,17.70
2022-09-10T01:18:33.683Z,17.70
2022-09-10T01:21:09.326Z,17.90
2022-09-10T01:24:02.159Z,17.80
2022-09-10T01:26:40.704Z,17.70
2022-09-10T01:29:19.215Z,17.60
2022-09-10T01:31:52.247Z,17.50
2022-09-10T01:34:24.635Z,17.50
2022-09-10T01:36:56.139Z,17.40
2022-09-10T01:39:26.305Z,17.30
2022-09-10T01:41:56.740Z,17.20
2022-09-10T01:44:45.018Z,17.20
2022-09-10T01:47:18.441Z,17.30
2022-09-10T01:49:58.207Z,17.20
2022-09-10T01:52:30.556Z,17.10
2022-09-10T01:55:04.484Z,17.00
2022-09-10T01:57:37.049Z,16.90
2022-09-10T02:00:12.307Z,16.90
2022-09-10T02:02:44.077Z,16.80
2022-09-10T02:05:14.009Z,16.80
2022-09-10T02:07:45.559Z,16.80
2022-09-10T02:10:14.969Z,16.80
2022-09-10T02:12:44.614Z,16.90
2022-09-10T02:15:16.166Z,16.80
2022-09-10T02:17:45.673Z,16.80
2022-09-10T02:20:16.035Z,16.80
2022-09-10T02:22:50.569Z,16.80
2022-09-10T02:25:20.744Z,16.70
2022-09-10T02:27:50.231Z,16.60
2022-09-10T02:30:21.436Z,16.60
2022-09-10T02:32:53.628Z,16.60
2022-09-10T02:35:24.745Z,16.50
2022-09-10T02:37:54.788Z,16.50
2022-09-10T02:40:25.620Z,16.40
2022-09-10T02:42:55.586Z,16.40
2022-09-10T02:45:27.619Z,16.30
2022-09-10T02:47:57.134Z,16.20
2022-09-10T02:50:26.763Z,16.10
2022-09-10T02:52:56.326Z,16.10
2022-09-10T02:55:26.044Z,16.10
2022-09-10T02:57:56.103Z,16.10
2022-09-10T03:00:27.128Z,16.10
2022-09-10T03:03:02.321Z,16.10
2022-09-10T03:05:32.850Z,16.10
2022-09-10T03:08:02.536Z,16.10
2022-09-10T03:10:32.562Z,16.10
2022-09-10T03:13:02.440Z,16.00
2022-09-10T03:15:33.390Z,16.00
2022-09-10T03:18:03.076Z,16.00
2022-09-10T03:20:32.616Z,16.00
2022-09-10T03:23:02.034Z,16.00
2022-09-10T03:25:31.535Z,16.00
2022-09-10T03:28:00.976Z,16.00
2022-09-10T03:30:30.394Z,16.00
2022-09-10T03:33:01.402Z,15.90
2022-09-10T03:35:31.029Z,16.00
2022-09-10T03:38:00.528Z,16.00
2022-09-10T03:40:37.981Z,16.00
2022-09-10T03:43:07.375Z,16.10
2022-09-10T03:45:36.872Z,16.10
2022-09-10T03:48:08.066Z,16.10
2022-09-10T03:50:37.657Z,16.10
2022-09-10T03:53:07.063Z,16.20
2022-09-10T03:55:36.586Z,16.20
2022-09-10T03:58:07.355Z,16.10
2022-09-10T04:00:37.298Z,16.00
2022-09-10T04:03:08.307Z,16.00
2022-09-10T04:05:41.356Z,16.00
2022-09-10T04:08:10.786Z,16.00
2022-09-10T04:10:40.537Z,16.00
2022-09-10T04:13:10.425Z,15.90
2022-09-10T04:15:40.047Z,15.90
2022-09-10T04:18:12.273Z,16.00
2022-09-10T04:20:41.713Z,16.00
2022-09-10T04:23:11.404Z,16.00
2022-09-10T04:25:40.907Z,15.90
2022-09-10T04:28:10.406Z,15.80
2022-09-10T04:30:40.867Z,15.70
2022-09-10T04:33:12.312Z,15.70
2022-09-10T04:35:41.718Z,15.70
2022-09-10T04:38:11.197Z,15.60
2022-09-10T04:40:40.634Z,15.60
2022-09-10T04:43:10.090Z,15.50
2022-09-10T04:45:39.714Z,15.50
2022-09-10T04:48:09.182Z,15.60
2022-09-10T04:50:59.319Z,15.70
2022-09-10T04:53:31.987Z,15.60
2022-09-10T04:56:01.831Z,15.60
2022-09-10T04:58:36.568Z,15.60
2022-09-10T05:01:09.345Z,15.50
2022-09-10T05:03:39.412Z,15.50
2022-09-10T05:06:10.642Z,15.50
2022-09-10T05:08:40.330Z,15.40
2022-09-10T05:11:09.880Z,15.40
2022-09-10T05:13:39.328Z,15.40
2022-09-10T05:16:09.174Z,15.40
2022-09-10T05:18:39.024Z,15.30
2022-09-10T05:21:08.611Z,15.30
2022-09-10T05:23:40.335Z,15.20
2022-09-10T05:26:10.801Z,15.30
2022-09-10T05:28:40.400Z,15.20
2022-09-10T05:31:10.464Z,15.10
2022-09-10T05:33:41.310Z,15.00
2022-09-10T05:36:11.424Z,15.00
2022-09-10T05:38:42.792Z,15.00
2022-09-10T05:41:12.570Z,15.00
2022-09-10T05:43:42.654Z,14.90
2022-09-10T05:46:12.129Z,14.90
2022-09-10T05:48:42.050Z,14.80
2022-09-10T05:51:11.631Z,14.70
2022-09-10T05:53:42.759Z,14.60
2022-09-10T05:56:12.357Z,14.60
2022-09-10T05:58:41.882Z,14.60
2022-09-10T06:01:11.810Z,14.60
2022-09-10T06:03:41.601Z,14.60
2022-09-10T06:06:11.427Z,14.60
2022-09-10T06:08:42.494Z,14.60
2022-09-10T06:11:12.733Z,14.50
2022-09-10T06:13:42.978Z,14.50
2022-09-10T06:16:12.725Z,14.50
2022-09-10T06:18:42.742Z,14.60
2022-09-10T06:21:14.593Z,14.60
2022-09-10T06:23:45.921Z,14.70
2022-09-10T06:26:16.222Z,14.70
2022-09-10T06:28:45.713Z,14.70
2022-09-10T06:31:17.885Z,14.50
2022-09-10T06:33:49.443Z,14.50
2022-09-10T06:36:18.884Z,14.50
2022-09-10T06:38:50.241Z,14.60
2022-09-10T06:41:20.037Z,14.60
2022-09-10T06:43:49.508Z,14.50
2022-09-10T06:46:56.980Z,14.50
2022-09-10T06:49:09.550Z,14.50
2022-09-10T06:51:40.416Z,14.50
2022-09-10T06:54:11.484Z,14.50
2022-09-10T06:56:43.368Z,14.40
2022-09-10T06:59:15.219Z,14.50
2022-09-10T07:01:44.656Z,14.50
2022-09-10T07:04:14.111Z,14.50
2022-09-10T07:06:43.759Z,14.60
2022-09-10T07:09:14.870Z,14.50
2022-09-10T07:11:45.061Z,14.50
2022-09-10T07:14:14.691Z,14.60
2022-09-10T07:16:45.237Z,14.60
2022-09-10T07:19:15.627Z,14.60
2022-09-10T07:21:45.683Z,14.50
2022-09-10T07:24:17.278Z,14.50
2022-09-10T07:26:47.747Z,14.40
2022-09-10T07:29:18.840Z,14.30
2022-09-10T07:31:48.878Z,14.30
2022-09-10T07:34:18.447Z,14.30
2022-09-10T07:36:47.950Z,14.30
2022-09-10T07:39:22.351Z,14.30
2022-09-10T07:41:54.410Z,14.40
2022-09-10T07:44:23.907Z,14.30
2022-09-10T07:46:54.694Z,14.30
2022-09-10T07:49:24.167Z,14.30
2022-09-10T07:51:59.153Z,14.40
2022-09-10T07:54:31.044Z,14.40
2022-09-10T07:57:00.669Z,14.40
2022-09-10T07:59:30.121Z,14.40
2022-09-10T08:01:59.876Z,14.40
2022-09-10T08:04:36.566Z,14.40
2022-09-10T08:07:06.772Z,14.40
2022-09-10T08:09:38.120Z,14.40
2022-09-10T08:12:08.779Z,14.40
2022-09-10T08:14:38.964Z,14.40
2022-09-10T08:17:08.794Z,14.40
2022-09-10T08:19:38.248Z,14.40
2022-09-10T08:22:12.823Z,14.40
2022-09-10T08:24:44.704Z,14.40
2022-09-10T08:27:14.183Z,14.40
2022-09-10T08:29:43.780Z,14.40
2022-09-10T08:32:14.133Z,14.40
2022-09-10T08:34:43.590Z,14.30
2022-09-10T08:37:13.065Z,14.30
2022-09-10T08:39:42.657Z,14.20
2022-09-10T08:42:17.967Z,14.10
2022-09-10T08:44:50.522Z,14.10
2022-09-10T08:47:26.579Z,14.10
2022-09-10T08:49:58.169Z,14.10
2022-09-10T08:52:31.768Z,14.00
2022-09-10T08:55:04.187Z,14.00
2022-09-10T08:57:37.392Z,13.90
2022-09-10T09:00:07.929Z,13.90
2022-09-10T09:02:49.226Z,13.90
2022-09-10T09:05:20.508Z,13.90
2022-09-10T09:07:50.839Z,13.90
2022-09-10T09:10:25.265Z,13.80
2022-09-10T09:13:03.092Z,13.80
2022-09-10T09:15:37.390Z,13.80
2022-09-10T09:18:18.987Z,13.70
2022-09-10T09:20:48.972Z,13.70
2022-09-10T09:23:26.299Z,13.70
2022-09-10T09:25:57.325Z,13.70
2022-09-10T09:28:33.695Z,13.70
2022-09-10T09:31:09.468Z,13.60
2022-09-10T09:33:40.010Z,13.60
2022-09-10T09:36:10.285Z,13.60
2022-09-10T09:38:41.728Z,13.60
2022-09-10T09:41:16.845Z,13.60
2022-09-10T09:43:53.815Z,13.60
2022-09-10T09:46:23.803Z,13.60
2022-09-10T09:48:54.794Z,13.60
2022-09-10T09:51:25.858Z,13.70
2022-09-10T09:54:18.509Z,13.70
2022-09-10T09:56:50.513Z,13.60
2022-09-10T09:59:31.458Z,13.60
2022-09-10T10:02:01.902Z,13.70
2022-09-10T10:04:36.225Z,13.70
2022-09-10T10:07:08.476Z,13.70
2022-09-10T10:09:41.002Z,13.70
2022-09-10T10:12:20.760Z,13.70
2022-09-10T10:14:52.058Z,13.60
2022-09-10T10:17:32.098Z,13.60
2022-09-10T10:20:04.800Z,13.50
2022-09-10T10:22:34.897Z,13.50
2022-09-10T10:25:05.818Z,13.50
2022-09-10T10:27:36.898Z,13.50
2022-09-10T10:30:24.201Z,13.50
2022-09-10T10:32:56.657Z,13.40
2022-09-10T10:35:35.184Z,13.40
2022-09-10T10:38:27.041Z,13.40
2022-09-10T10:41:01.332Z,13.40
2022-09-10T10:43:39.076Z,13.40
2022-09-10T10:46:13.166Z,13.40
2022-09-10T10:48:51.094Z,13.30
2022-09-10T10:51:24.575Z,13.30
2022-09-10T10:54:03.423Z,13.30
2022-09-10T10:56:34.676Z,13.30
2022-09-10T10:59:17.990Z,13.40
2022-09-10T11:01:51.939Z,13.50
2022-09-10T11:04:25.950Z,13.60
2022-09-10T11:06:57.868Z,13.50
2022-09-10T11:09:28.713Z,13.50
2022-09-10T11:12:01.747Z,13.60
2022-09-10T11:14:35.826Z,13.60
2022-09-10T11:17:08.853Z,13.60
2022-09-10T11:19:41.202Z,13.70
2022-09-10T11:22:14.613Z,13.70
2022-09-10T11:24:46.672Z,13.70
2022-09-10T11:27:17.963Z,13.70
2022-09-10T11:29:52.576Z,13.80
2022-09-10T11:32:27.662Z,13.80
2022-09-10T11:35:00.871Z,13.90
2022-09-10T11:37:32.960Z,14.00
2022-09-10T11:40:06.257Z,14.00
2022-09-10T11:42:38.990Z,14.20
2022-09-10T11:45:16.795Z,14.20
2022-09-10T11:47:50.917Z,14.30
2022-09-10T11:50:25.871Z,14.40
2022-09-10T11:52:57.123Z,14.50
2022-09-10T11:55:32.201Z,14.50
2022-09-10T11:58:05.357Z,14.60
2022-09-10T12:00:37.666Z,14.70
2022-09-10T12:03:24.999Z,14.80
2022-09-10T12:06:02.131Z,14.90
2022-09-10T12:08:38.953Z,14.90
2022-09-10T12:11:15.800Z,15.10
2022-09-10T12:13:46.513Z,15.10
2022-09-10T12:16:20.823Z,15.20
2022-09-10T12:18:52.405Z,15.30
2022-09-10T12:21:30.156Z,15.40
2022-09-10T12:23:59.636Z,15.50
2022-09-10T12:26:30.053Z,15.60
2022-09-10T12:29:02.094Z,15.70
2022-09-10T12:31:51.526Z,15.80
2022-09-10T12:34:21.071Z,15.90
2022-09-10T12:37:17.933Z,16.10
2022-09-10T12:39:50.379Z,16.20
2022-09-10T12:42:26.848Z,16.40
2022-09-10T12:44:56.965Z,16.50
2022-09-10T12:47:40.706Z,16.60
2022-09-10T12:50:21.113Z,16.70
2022-09-10T12:52:58.656Z,16.80
2022-09-10T12:55:37.976Z,16.80
2022-09-10T12:58:12.354Z,16.90
2022-09-10T13:00:47.332Z,17.00
2022-09-10T13:03:18.902Z,17.10
2022-09-10T13:05:52.787Z,17.20
2022-09-10T13:08:24.916Z,17.20
2022-09-10T13:11:11.318Z,17.30
2022-09-10T13:13:43.257Z,17.40
2022-09-10T13:16:16.196Z,17.50
2022-09-10T13:18:47.207Z,17.60
2022-09-10T13:21:37.464Z,17.70
2022-09-10T13:24:32.276Z,17.90
2022-09-10T13:27:07.199Z,18.00
2022-09-10T13:29:37.831Z,18.10
2022-09-10T13:32:10.191Z,18.30
2022-09-10T13:34:57.104Z,18.40
2022-09-10T13:37:36.202Z,18.50
2022-09-10T13:40:33.816Z,18.60
2022-09-10T13:43:13.968Z,18.80
2022-09-10T13:45:43.844Z,19.00
2022-09-10T13:48:15.853Z,19.10
2022-09-10T13:50:49.718Z,19.20
2022-09-10T13:53:20.356Z,19.40
2022-09-10T13:55:52.391Z,19.50
2022-09-10T13:58:29.123Z,19.70
2022-09-10T14:01:00.679Z,19.80
2022-09-10T14:03:32.500Z,19.90
2022-09-10T14:06:06.126Z,20.00
2022-09-10T14:08:36.513Z,20.10
2022-09-10T14:11:09.060Z,20.30
2022-09-10T14:13:42.528Z,20.40
2022-09-10T14:16:13.506Z,20.50
2022-09-10T14:18:45.042Z,20.60
2022-09-10T14:21:16.086Z,20.80
2022-09-10T14:23:46.879Z,21.00
2022-09-10T14:26:23.789Z,21.10
2022-09-10T14:28:56.081Z,21.20
2022-09-10T14:31:31.212Z,21.30
2022-09-10T14:34:01.299Z,21.50
2022-09-10T14:36:35.215Z,21.60
2022-09-10T14:39:07.147Z,21.80
2022-09-10T14:41:38.684Z,21.90
2022-09-10T14:44:30.326Z,21.90
2022-09-10T14:47:00.672Z,22.10
2022-09-10T14:49:31.164Z,22.30
2022-09-10T14:52:00.997Z,22.40
2022-09-10T14:54:31.357Z,22.50
2022-09-10T14:57:03.067Z,22.50
2022-09-10T14:59:35.190Z,22.60
2022-09-10T15:02:08.467Z,22.60
2022-09-10T15:04:39.573Z,22.70
2022-09-10T15:07:10.522Z,22.80
2022-09-10T15:09:40.055Z,22.80
2022-09-10T15:12:12.855Z,23.00
2022-09-10T15:14:43.920Z,23.10
2022-09-10T15:17:15.642Z,23.20
2022-09-10T15:19:45.135Z,23.20
2022-09-10T15:22:19.331Z,23.30
2022-09-10T15:25:08.471Z,23.40
2022-09-10T15:27:38.431Z,23.50
2022-09-10T15:30:11.402Z,23.60
2022-09-10T15:32:40.976Z,23.70
2022-09-10T15:35:10.616Z,23.80
2022-09-10T15:37:41.063Z,24.00
2022-09-10T15:40:11.699Z,24.00
2022-09-10T15:42:41.201Z,24.10
2022-09-10T15:45:13.313Z,24.20
2022-09-10T15:47:43.070Z,24.40
2022-09-10T15:50:13.199Z,24.50
2022-09-10T15:52:42.563Z,24.70
2022-09-10T15:55:13.113Z,24.70
2022-09-10T15:57:42.630Z,24.80
2022-09-10T16:00:14.594Z,25.00
2022-09-10T16:02:44.340Z,25.10
2022-09-10T16:05:14.645Z,25.30
2022-09-10T16:07:45.286Z,25.50
2022-09-10T16:10:14.793Z,25.70
2022-09-10T16:12:44.680Z,25.90
2022-09-10T16:15:15.766Z,26.00
2022-09-10T16:17:46.422Z,26.20
2022-09-10T16:20:15.897Z,26.30
2022-09-10T16:22:45.434Z,26.50
2022-09-10T16:25:14.880Z,26.60
2022-09-10T16:27:45.919Z,26.70
2022-09-10T16:30:17.158Z,26.90
2022-09-10T16:32:46.945Z,27.00
2022-09-10T16:35:17.345Z,27.40
2022-09-10T16:37:46.792Z,27.50
2022-09-10T16:40:19.833Z,27.80
2022-09-10T16:42:49.496Z,28.00
2022-09-10T16:45:20.528Z,28.40
2022-09-10T16:47:49.969Z,28.60
2022-09-10T16:50:20.991Z,28.70
2022-09-10T16:52:50.820Z,28.80
2022-09-10T16:55:20.239Z,28.90
2022-09-10T16:57:49.684Z,29.10
2022-09-10T17:00:20.786Z,29.30
2022-09-10T17:02:51.714Z,29.50
2022-09-10T17:05:21.400Z,29.60
2022-09-10T17:07:50.919Z,29.90
2022-09-10T17:10:21.350Z,30.10
2022-09-10T17:12:51.132Z,30.40
2022-09-10T17:15:22.307Z,30.40
2022-09-10T17:17:51.680Z,30.40
2022-09-10T17:20:21.324Z,30.60
2022-09-10T17:22:50.885Z,30.50
2022-09-10T17:25:20.303Z,30.70
2022-09-10T17:27:49.804Z,30.80
2022-09-10T17:30:19.188Z,30.90
2022-09-10T17:32:51.516Z,31.00
2022-09-10T17:35:21.183Z,31.20
2022-09-10T17:37:50.920Z,31.20
2022-09-10T17:40:20.801Z,31.30
2022-09-10T17:42:51.111Z,31.50
2022-09-10T17:45:20.552Z,31.70
2022-09-10T17:47:51.522Z,31.60
2022-09-10T17:50:21.035Z,31.70
2022-09-10T17:52:50.436Z,31.80
2022-09-10T17:55:19.830Z,32.00
2022-09-10T17:57:49.257Z,32.30
2022-09-10T18:00:18.808Z,32.20
2022-09-10T18:02:48.330Z,32.00
2022-09-10T18:05:20.465Z,32.00
2022-09-10T18:07:50.004Z,32.00
2022-09-10T18:10:19.785Z,32.00
2022-09-10T18:12:49.359Z,32.10
2022-09-10T18:15:20.199Z,32.40
2022-09-10T18:17:49.785Z,32.10
2022-09-10T18:20:20.819Z,32.20
2022-09-10T18:22:50.672Z,32.20
2022-09-10T18:25:20.555Z,32.20
2022-09-10T18:27:52.720Z,32.10
2022-09-10T18:30:22.279Z,32.10
2022-09-10T18:32:52.718Z,32.40
2022-09-10T18:35:23.853Z,32.50
2022-09-10T18:37:53.490Z,32.40
2022-09-10T18:40:23.675Z,32.50
2022-09-10T18:42:53.184Z,32.10
2022-09-10T18:45:24.406Z,31.90
2022-09-10T18:47:53.805Z,31.90
2022-09-10T18:50:27.182Z,32.20
2022-09-10T18:52:56.612Z,32.40
2022-09-10T18:55:26.230Z,32.60
2022-09-10T18:57:57.390Z,33.00
2022-09-10T19:00:26.836Z,32.70
2022-09-10T19:02:56.530Z,32.50
2022-09-10T19:05:28.153Z,32.40
2022-09-10T19:07:57.920Z,32.50
2022-09-10T19:10:31.449Z,32.60
2022-09-10T19:13:01.232Z,32.80
2022-09-10T19:15:30.804Z,32.70
2022-09-10T19:18:04.499Z,33.00
2022-09-10T19:20:40.505Z,33.20
2022-09-10T19:23:11.354Z,33.30
2022-09-10T19:25:40.832Z,33.20
2022-09-10T19:28:10.233Z,32.80
2022-09-10T19:30:39.986Z,32.70
2022-09-10T19:33:09.463Z,32.40
2022-09-10T19:35:40.644Z,31.90
2022-09-10T19:38:27.517Z,31.20
2022-09-10T19:41:06.944Z,30.50
2022-09-10T19:43:36.933Z,30.80
2022-09-10T19:46:06.703Z,30.80
2022-09-10T19:48:36.827Z,31.30
2022-09-10T19:51:10.502Z,31.50
2022-09-10T19:53:41.015Z,31.10
2022-09-10T19:56:11.862Z,30.80
2022-09-10T19:58:42.072Z,31.00
2022-09-10T20:01:12.183Z,31.10
2022-09-10T20:03:42.492Z,30.90
2022-09-10T20:06:14.610Z,30.50
2022-09-10T20:08:44.750Z,30.00
2022-09-10T20:11:18.583Z,29.60
2022-09-10T20:13:48.106Z,29.20
2022-09-10T20:16:17.989Z,28.90
2022-09-10T20:18:47.719Z,28.70
2022-09-10T20:21:19.784Z,29.20
2022-09-10T20:23:51.462Z,29.90
2022-09-10T20:26:21.793Z,30.60
2022-09-10T20:28:52.722Z,30.90
2022-09-10T20:31:22.907Z,31.20
2022-09-10T20:33:55.853Z,30.70
2022-09-10T20:36:27.498Z,30.20
2022-09-10T20:38:58.040Z,29.90
2022-09-10T20:41:30.770Z,30.10
2022-09-10T20:44:01.205Z,30.50
2022-09-10T20:46:31.444Z,31.00
2022-09-10T20:49:04.026Z,30.80
2022-09-10T20:51:35.808Z,30.10
2022-09-10T20:54:05.988Z,29.20
2022-09-10T20:56:35.457Z,28.90
2022-09-10T20:59:04.876Z,29.30
2022-09-10T21:01:34.515Z,29.70
2022-09-10T21:04:04.738Z,30.10
2022-09-10T21:06:36.391Z,30.50
2022-09-10T21:09:06.767Z,30.50
2022-09-10T21:11:37.208Z,30.10
2022-09-10T21:14:07.648Z,29.70
2022-09-10T21:16:37.871Z,29.90
2022-09-10T21:19:09.982Z,29.80
2022-09-10T21:21:41.909Z,29.50
2022-09-10T21:24:13.675Z,29.60
2022-09-10T21:26:43.903Z,29.70
2022-09-10T21:29:13.887Z,29.90
2022-09-10T21:31:44.315Z,29.80
2022-09-10T21:34:14.091Z,29.80
2022-09-10T21:36:45.797Z,29.60
2022-09-10T21:39:16.071Z,29.50
2022-09-10T21:41:46.722Z,29.40
2022-09-10T21:44:17.144Z,29.30
2022-09-10T21:46:47.016Z,29.00
2022-09-10T21:49:16.566Z,28.70
2022-09-10T21:51:47.919Z,28.20
2022-09-10T21:54:19.287Z,27.80
2022-09-10T21:56:49.464Z,27.40
2022-09-10T21:59:18.869Z,27.10
2022-09-10T22:01:48.752Z,26.80
2022-09-10T22:04:22.524Z,26.50
2022-09-10T22:06:54.520Z,26.40
2022-09-10T22:09:24.968Z,26.20
2022-09-10T22:11:57.078Z,26.00
2022-09-10T22:14:26.996Z,25.80
2022-09-10T22:16:56.489Z,25.60
2022-09-10T22:19:26.821Z,25.40
2022-09-10T22:21:58.041Z,25.30
2022-09-10T22:24:28.091Z,25.10
2022-09-10T22:26:57.515Z,24.90
2022-09-10T22:29:27.163Z,24.70
2022-09-10T22:31:56.647Z,24.60
2022-09-10T22:34:26.233Z,24.50
2022-09-10T22:36:56.433Z,24.30
2022-09-10T22:39:27.647Z,24.20
2022-09-10T22:41:57.348Z,24.00
2022-09-10T22:44:26.928Z,23.80
2022-09-10T22:46:56.516Z,23.70
2022-09-10T22:49:25.956Z,23.50
2022-09-10T22:51:55.333Z,23.40
2022-09-10T22:54:24.794Z,23.20
2022-09-10T22:56:55.881Z,23.10
2022-09-10T22:59:25.605Z,23.00
2022-09-10T23:01:55.785Z,22.90
2022-09-10T23:04:25.382Z,22.80
2022-09-10T23:06:54.787Z,22.70
2022-09-10T23:09:24.468Z,22.50
2022-09-10T23:11:55.978Z,22.40
2022-09-10T23:14:26.428Z,22.30
2022-09-10T23:16:56.130Z,22.20
2022-09-10T23:19:26.960Z,22.00
2022-09-10T23:21:57.575Z,21.80
2022-09-10T23:24:27.416Z,21.70
2022-09-10T23:26:58.594Z,21.60
2022-09-10T23:29:28.546Z,21.40
2022-09-10T23:31:58.265Z,21.40
2022-09-10T23:34:27.685Z,21.20
2022-09-10T23:36:57.099Z,21.10
2022-09-10T23:39:27.614Z,20.90
2022-09-10T23:41:59.185Z,20.80
2022-09-10T23:44:29.228Z,20.70
2022-09-10T23:46:58.641Z,20.60
2022-09-10T23:49:28.236Z,20.60
2022-09-10T23:51:57.718Z,20.50
2022-09-10T23:54:29.659Z,20.50
2022-09-10T23:57:00.936Z,20.40
2022-09-10T23:59:30.758Z,20.30
